Time;durP1;ratioP1;P1;durP2;ratioP2;P2;SDS_P1;SDS_P2;PMS_P1;PMS_P2;Temp;Humidity;BMP_temperature;BMP_pressure;BME280_temperature;BME280_humidity;BME280_pressure;Samples;Min_cycle;Max_cycle;Signal;HPM_P1;HPM_P2
2022/12/19 00:01:18;;;;;;;27.77;16.67;;;-1.70;85.70;;;;;;5047897;28;20434;-71
2022/12/19 00:03:56;;;;;;;29.43;17.60;;;-1.60;86.10;;;;;;5051837;28;20429;-70
2022/12/19 00:06:23;;;;;;;29.50;16.07;;;-1.60;85.90;;;;;;5052515;28;20474;-71
2022/12/19 00:08:50;;;;;;;26.73;17.13;;;-1.60;86.20;;;;;;5040627;28;20426;-71
2022/12/19 00:11:18;;;;;;;31.60;17.27;;;-1.70;85.20;;;;;;5031122;28;20484;-71
2022/12/19 00:13:44;;;;;;;33.40;18.40;;;-1.60;85.70;;;;;;5047103;28;20423;-71
2022/12/19 00:16:13;;;;;;;32.93;18.63;;;-1.70;86.10;;;;;;5022117;28;20449;-71
2022/12/19 00:18:40;;;;;;;31.57;19.50;;;-1.60;85.70;;;;;;5050476;28;20214;-71
2022/12/19 00:21:07;;;;;;;32.37;19.47;;;-1.80;85.50;;;;;;5052563;28;20433;-71
2022/12/19 00:23:33;;;;;;;30.53;18.87;;;-1.80;85.20;;;;;;5036852;28;20472;-71
2022/12/19 00:26:06;;;;;;;31.83;17.90;;;-1.80;84.70;;;;;;5049723;28;20518;-71
2022/12/19 00:28:32;;;;;;;31.23;18.33;;;-1.80;84.60;;;;;;5051223;28;20437;-71
2022/12/19 00:31:00;;;;;;;28.00;16.07;;;-1.70;85.30;;;;;;5020394;28;20438;-71
2022/12/19 00:33:25;;;;;;;32.07;16.37;;;-1.70;85.60;;;;;;5041579;28;20207;-71
2022/12/19 00:36:06;;;;;;;25.37;15.37;;;-1.70;85.70;;;;;;5009222;28;20438;-71
2022/12/19 00:38:33;;;;;;;33.07;19.00;;;-1.70;86.00;;;;;;5046746;28;20219;-71
2022/12/19 00:41:07;;;;;;;26.83;15.37;;;-1.70;85.10;;;;;;5042155;28;20451;-70
2022/12/19 00:43:33;;;;;;;29.63;17.67;;;-1.70;86.10;;;;;;5060670;28;20443;-71
2022/12/19 00:46:02;;;;;;;31.20;17.13;;;-1.70;85.90;;;;;;5037202;28;20470;-71
2022/12/19 00:48:29;;;;;;;28.17;16.37;;;-1.60;86.00;;;;;;5052607;28;20655;-71
2022/12/19 00:51:00;;;;;;;29.70;17.87;;;-1.60;86.10;;;;;;5046616;28;20526;-71
2022/12/19 00:53:26;;;;;;;28.47;15.30;;;-1.60;85.70;;;;;;5037888;28;20433;-71
2022/12/19 00:55:51;;;;;;;29.80;16.23;;;-1.60;86.30;;;;;;5050920;28;20451;-71
2022/12/19 00:58:17;;;;;;;30.37;16.57;;;-1.60;86.60;;;;;;5019691;28;20226;-71
2022/12/19 01:00:42;;;;;;;27.80;16.13;;;-1.60;86.00;;;;;;5017654;28;20193;-71
2022/12/19 01:03:08;;;;;;;25.07;16.03;;;-1.50;86.50;;;;;;5026546;28;20187;-71
2022/12/19 01:05:34;;;;;;;35.20;19.10;;;-1.50;86.30;;;;;;5019409;28;20640;-71
2022/12/19 01:08:00;;;;;;;27.53;15.83;;;-1.60;85.20;;;;;;5020017;28;20203;-71
2022/12/19 01:10:25;;;;;;;32.63;17.67;;;-1.60;85.60;;;;;;5033257;28;20245;-71
2022/12/19 01:12:51;;;;;;;33.50;18.23;;;-1.60;86.00;;;;;;5016913;28;20548;-71
2022/12/19 01:15:19;;;;;;;29.50;17.77;;;-1.60;85.80;;;;;;5008665;28;20195;-71
2022/12/19 01:17:46;;;;;;;24.20;15.33;;;-1.60;85.10;;;;;;5049348;28;20211;-71
2022/12/19 01:20:15;;;;;;;28.33;16.90;;;-1.60;85.90;;;;;;5014693;28;20447;-71
2022/12/19 01:22:41;;;;;;;27.63;16.20;;;-1.50;86.20;;;;;;5033684;28;20465;-71
2022/12/19 01:25:07;;;;;;;30.97;16.90;;;-1.60;86.00;;;;;;5032671;28;20446;-71
2022/12/19 01:27:32;;;;;;;31.33;17.27;;;-1.60;85.20;;;;;;5006903;28;20189;-71
2022/12/19 01:29:58;;;;;;;26.33;15.83;;;-1.60;85.00;;;;;;5035236;28;20211;-71
2022/12/19 01:32:24;;;;;;;26.80;16.03;;;-1.60;85.50;;;;;;5034708;28;20195;-71
2022/12/19 01:34:49;;;;;;;28.97;16.17;;;-1.50;84.90;;;;;;5036149;28;20207;-71
2022/12/19 01:37:15;;;;;;;29.17;17.43;;;-1.60;84.70;;;;;;5019253;28;20560;-71
2022/12/19 01:39:41;;;;;;;26.40;14.57;;;-1.60;84.90;;;;;;5037278;28;20187;-71
2022/12/19 01:42:20;;;;;;;25.13;15.77;;;-1.60;84.80;;;;;;5019678;28;20282;-71
2022/12/19 01:45:23;;;;;;;28.33;16.33;;;-1.60;84.30;;;;;;5055247;28;20187;-71
2022/12/19 01:48:20;;;;;;;27.00;16.07;;;-1.60;84.20;;;;;;5039127;28;20425;-71
2022/12/19 01:50:55;;;;;;;29.40;16.87;;;-1.60;83.60;;;;;;5072319;28;20470;-71
2022/12/19 01:53:23;;;;;;;33.20;17.03;;;-1.60;82.70;;;;;;5066438;28;20441;-71
2022/12/19 01:55:49;;;;;;;28.77;16.67;;;-1.70;83.70;;;;;;5042533;28;20430;-71
2022/12/19 01:58:16;;;;;;;30.23;17.17;;;-1.60;84.20;;;;;;5019831;28;20470;-71
2022/12/19 02:00:43;;;;;;;28.80;16.87;;;-1.60;83.90;;;;;;5020068;28;20725;-71
2022/12/19 02:03:17;;;;;;;21.73;14.17;;;-1.60;84.20;;;;;;5055574;28;20501;-71
2022/12/19 02:05:44;;;;;;;28.83;15.73;;;-1.60;84.70;;;;;;5065926;28;20445;-71
2022/12/19 02:08:11;;;;;;;26.63;16.57;;;-1.60;84.80;;;;;;5031300;28;20459;-71
2022/12/19 02:10:37;;;;;;;27.90;15.43;;;-1.70;83.00;;;;;;5051989;28;20445;-71
2022/12/19 02:13:03;;;;;;;25.10;15.43;;;-1.70;84.40;;;;;;5018249;28;20450;-71
2022/12/19 02:15:34;;;;;;;24.43;15.57;;;-1.60;84.00;;;;;;5047385;28;20268;-71
2022/12/19 02:18:18;;;;;;;26.57;14.90;;;-1.60;84.00;;;;;;5044568;28;20461;-71
2022/12/19 02:21:02;;;;;;;29.10;15.97;;;-1.60;84.10;;;;;;5064417;28;20463;-71
2022/12/19 02:23:45;;;;;;;29.03;16.83;;;-1.60;84.60;;;;;;5053051;28;20429;-70
2022/12/19 02:26:11;;;;;;;27.57;16.27;;;-1.60;84.70;;;;;;5047243;28;20462;-70
2022/12/19 02:28:45;;;;;;;26.07;14.47;;;-1.60;83.80;;;;;;5055469;28;20465;-70
2022/12/19 02:31:11;;;;;;;28.40;15.10;;;-1.60;84.40;;;;;;5055570;28;20202;-70
2022/12/19 02:33:46;;;;;;;23.90;15.77;;;-1.60;84.60;;;;;;5055527;28;20434;-70
2022/12/19 02:36:17;;;;;;;28.10;16.33;;;-1.60;84.70;;;;;;5053336;28;20225;-70
2022/12/19 02:39:08;;;;;;;24.87;15.20;;;-1.60;85.00;;;;;;5042096;28;20567;-71
2022/12/19 02:41:43;;;;;;;25.00;14.90;;;-1.50;85.00;;;;;;5051822;28;20442;-70
2022/12/19 02:44:18;;;;;;;28.63;16.40;;;-1.60;85.00;;;;;;5051948;28;20441;-71
2022/12/19 02:46:46;;;;;;;24.20;15.53;;;-1.50;85.00;;;;;;5045024;28;20485;-71
2022/12/19 02:49:12;;;;;;;26.60;16.00;;;-1.60;85.10;;;;;;5049085;28;20442;-70
2022/12/19 02:51:39;;;;;;;26.87;15.73;;;-1.60;84.70;;;;;;5027277;28;20463;-71
2022/12/19 02:54:05;;;;;;;25.23;15.53;;;-1.60;84.20;;;;;;5048530;28;20431;-71
2022/12/19 02:56:55;;;;;;;26.27;15.77;;;-1.60;84.20;;;;;;5038420;28;20220;-71
2022/12/19 03:00:05;;;;;;;30.17;17.00;;;-1.60;84.50;;;;;;5042646;28;20493;-70
2022/12/19 03:03:01;;;;;;;26.63;15.93;;;-1.60;84.40;;;;;;5024582;28;20602;-71
2022/12/19 03:05:33;;;;;;;23.37;14.33;;;-1.70;85.00;;;;;;5053520;28;20441;-70
2022/12/19 03:08:17;;;;;;;24.43;14.33;;;-1.60;85.50;;;;;;5053535;28;20484;-71
2022/12/19 03:10:48;;;;;;;24.77;14.63;;;-1.60;85.20;;;;;;5045427;28;20524;-71
2022/12/19 03:13:19;;;;;;;22.83;13.43;;;-1.60;85.30;;;;;;5054811;28;20460;-71
2022/12/19 03:15:45;;;;;;;25.63;15.67;;;-1.60;85.00;;;;;;5037093;28;20484;-71
2022/12/19 03:18:11;;;;;;;26.17;15.40;;;-1.60;85.10;;;;;;5047138;28;20463;-70
2022/12/19 03:20:51;;;;;;;28.37;15.73;;;-1.60;84.90;;;;;;5051912;28;20203;-70
2022/12/19 03:23:18;;;;;;;26.47;15.50;;;-1.60;83.60;;;;;;5049949;28;20214;-71
2022/12/19 03:25:49;;;;;;;29.23;16.70;;;-1.60;83.90;;;;;;5026190;28;20523;-71
2022/12/19 03:28:28;;;;;;;27.50;16.30;;;-1.70;83.40;;;;;;5042289;28;20484;-71
2022/12/19 03:30:57;;;;;;;30.33;17.17;;;-1.70;83.30;;;;;;5047134;28;20449;-70
2022/12/19 03:33:26;;;;;;;24.70;14.97;;;-1.60;83.90;;;;;;5045077;28;20430;-70
2022/12/19 03:35:56;;;;;;;27.17;14.40;;;-1.60;84.10;;;;;;5034606;28;20458;-70
2022/12/19 03:38:21;;;;;;;28.17;16.47;;;-1.60;84.50;;;;;;5054708;28;20466;-70
2022/12/19 03:40:48;;;;;;;25.43;14.37;;;-1.60;84.10;;;;;;5042874;28;20442;-71
2022/12/19 03:43:17;;;;;;;26.37;15.73;;;-1.60;84.40;;;;;;5052315;28;20222;-70
2022/12/19 03:46:15;;;;;;;26.00;15.27;;;-1.60;84.80;;;;;;5037026;28;20577;-70
2022/12/19 03:48:47;;;;;;;25.77;16.13;;;-1.60;84.90;;;;;;5048274;28;20438;-70
2022/12/19 03:51:24;;;;;;;28.53;15.33;;;-1.60;85.10;;;;;;5042817;28;20432;-71
2022/12/19 03:54:11;;;;;;;28.23;15.97;;;-1.60;85.10;;;;;;5053456;28;20441;-70
2022/12/19 03:56:47;;;;;;;23.27;15.23;;;-1.60;85.10;;;;;;5038225;28;20454;-70
2022/12/19 03:59:41;;;;;;;28.33;15.93;;;-1.60;84.60;;;;;;5053275;28;20470;-70
2022/12/19 04:02:08;;;;;;;25.57;16.33;;;-1.60;84.70;;;;;;5080006;28;20453;-70
2022/12/19 04:04:39;;;;;;;28.20;16.97;;;-1.60;84.20;;;;;;5037321;28;20530;-70
2022/12/19 04:07:06;;;;;;;26.87;17.03;;;-1.60;83.90;;;;;;5039833;28;20513;-70
2022/12/19 04:09:32;;;;;;;27.50;17.03;;;-1.60;84.00;;;;;;5046430;28;20492;-70
2022/12/19 04:12:03;;;;;;;24.53;14.73;;;-1.60;83.50;;;;;;5048592;28;20434;-70
2022/12/19 04:14:33;;;;;;;25.43;15.93;;;-1.60;84.40;;;;;;5045411;28;20474;-70
2022/12/19 04:17:26;;;;;;;30.27;17.80;;;-1.60;82.90;;;;;;5049809;28;20438;-71
2022/12/19 04:20:00;;;;;;;25.27;16.47;;;-1.60;84.00;;;;;;5051113;28;20991;-70
2022/12/19 04:22:28;;;;;;;25.83;16.87;;;-1.60;84.70;;;;;;5034284;28;20442;-71
2022/12/19 04:24:56;;;;;;;32.23;17.93;;;-1.60;83.60;;;;;;5034432;28;20443;-71
2022/12/19 04:27:22;;;;;;;29.63;16.47;;;-1.60;84.40;;;;;;5040091;28;20422;-71
2022/12/19 04:29:54;;;;;;;24.73;15.13;;;-1.60;84.70;;;;;;5040092;28;20446;-69
2022/12/19 04:32:19;;;;;;;29.13;18.53;;;-1.60;84.80;;;;;;5053575;28;20198;-70
2022/12/19 04:34:45;;;;;;;26.37;16.13;;;-1.60;84.90;;;;;;5034363;28;20447;-71
2022/12/19 04:37:11;;;;;;;28.33;17.23;;;-1.60;85.20;;;;;;5007584;28;20194;-71
2022/12/19 04:39:37;;;;;;;29.17;17.10;;;-1.60;84.50;;;;;;5032924;28;20232;-70
2022/12/19 04:42:02;;;;;;;28.33;16.67;;;-1.60;85.30;;;;;;5037502;28;20193;-71
2022/12/19 04:44:28;;;;;;;28.60;16.80;;;-1.50;85.50;;;;;;5022588;28;20214;-71
2022/12/19 04:46:54;;;;;;;27.47;15.77;;;-1.60;85.30;;;;;;5020786;28;20226;-71
2022/12/19 04:49:19;;;;;;;24.87;15.17;;;-1.60;85.30;;;;;;5022842;28;20298;-71
2022/12/19 04:51:45;;;;;;;25.47;16.17;;;-1.60;85.40;;;;;;5018722;28;20264;-71
2022/12/19 04:54:11;;;;;;;25.53;15.23;;;-1.50;85.50;;;;;;5048811;28;20201;-71
2022/12/19 04:56:36;;;;;;;26.33;15.00;;;-1.60;85.10;;;;;;5029704;28;20217;-71
2022/12/19 04:59:02;;;;;;;31.10;16.63;;;-1.60;85.10;;;;;;5022520;28;20246;-71
2022/12/19 05:01:28;;;;;;;25.27;16.03;;;-1.60;85.20;;;;;;5049329;28;20240;-71
2022/12/19 05:03:54;;;;;;;29.70;16.87;;;-1.60;85.50;;;;;;5038026;28;20183;-71
2022/12/19 05:06:20;;;;;;;30.37;17.27;;;-1.60;85.00;;;;;;5018774;28;20639;-71
2022/12/19 05:08:45;;;;;;;29.17;16.10;;;-1.60;85.30;;;;;;5044549;28;20223;-71
2022/12/19 05:11:13;;;;;;;33.90;18.23;;;-1.60;85.00;;;;;;5022748;28;20194;-71
2022/12/19 05:13:39;;;;;;;27.17;16.07;;;-1.60;84.90;;;;;;5039777;28;20199;-71
2022/12/19 05:16:08;;;;;;;23.37;14.53;;;-1.60;85.20;;;;;;5034928;28;20446;-71
2022/12/19 05:18:35;;;;;;;25.53;15.50;;;-1.60;85.10;;;;;;5046317;28;20210;-71
2022/12/19 05:21:01;;;;;;;25.87;16.67;;;-1.60;85.20;;;;;;5048374;28;20432;-71
2022/12/19 05:23:27;;;;;;;26.10;16.50;;;-1.60;84.50;;;;;;5034568;28;20453;-71
2022/12/19 05:25:52;;;;;;;30.17;17.40;;;-1.60;84.80;;;;;;5038027;28;20197;-71
2022/12/19 05:28:18;;;;;;;22.43;14.80;;;-1.60;84.20;;;;;;5023675;28;20434;-70
2022/12/19 05:30:45;;;;;;;25.53;16.50;;;-1.60;84.10;;;;;;5022277;28;20200;-71
2022/12/19 05:33:11;;;;;;;25.43;15.80;;;-1.60;84.30;;;;;;5035804;28;20515;-69
2022/12/19 05:35:37;;;;;;;30.43;16.77;;;-1.60;84.30;;;;;;5030730;28;20549;-69
2022/12/19 05:38:03;;;;;;;23.20;15.03;;;-1.60;83.70;;;;;;5028683;28;20215;-70
2022/12/19 05:40:28;;;;;;;22.63;14.50;;;-1.60;84.10;;;;;;5031539;28;20188;-69
2022/12/19 05:42:54;;;;;;;28.87;16.03;;;-1.60;84.30;;;;;;5023066;28;20457;-70
2022/12/19 05:45:20;;;;;;;27.77;14.73;;;-1.60;84.00;;;;;;5023270;28;20248;-69
2022/12/19 05:47:46;;;;;;;26.37;15.73;;;-1.70;84.40;;;;;;5029330;28;20196;-70
2022/12/19 05:50:13;;;;;;;31.93;17.57;;;-1.70;84.40;;;;;;5027500;28;20447;-69
2022/12/19 05:52:39;;;;;;;27.60;16.60;;;-1.60;83.60;;;;;;5038629;28;20435;-69
2022/12/19 05:55:06;;;;;;;26.27;15.13;;;-1.70;84.40;;;;;;5036659;28;20456;-69
2022/12/19 05:57:31;;;;;;;26.73;16.27;;;-1.70;84.30;;;;;;5050450;28;20190;-69
2022/12/19 05:59:57;;;;;;;24.57;15.27;;;-1.70;84.50;;;;;;5026616;28;20469;-69
2022/12/19 06:02:23;;;;;;;31.63;17.30;;;-1.70;84.30;;;;;;5021314;28;20195;-69
2022/12/19 06:04:48;;;;;;;24.97;14.90;;;-1.70;84.40;;;;;;5024417;28;20246;-69
2022/12/19 06:07:14;;;;;;;27.63;16.37;;;-1.70;84.40;;;;;;5029419;28;20203;-69
2022/12/19 06:09:40;;;;;;;24.30;15.57;;;-1.80;84.40;;;;;;5004721;28;20195;-69
2022/12/19 06:12:06;;;;;;;27.30;15.20;;;-1.80;84.70;;;;;;5013432;28;20206;-69
2022/12/19 06:14:32;;;;;;;24.80;15.20;;;-1.80;84.30;;;;;;5026832;28;20196;-69
2022/12/19 06:16:57;;;;;;;29.67;17.60;;;-1.80;84.40;;;;;;5046990;28;20227;-69
2022/12/19 06:19:23;;;;;;;30.80;17.03;;;-1.80;83.80;;;;;;5008199;28;20212;-69
2022/12/19 06:21:49;;;;;;;28.33;15.80;;;-1.90;84.80;;;;;;5026750;28;20210;-69
2022/12/19 06:24:15;;;;;;;25.40;16.47;;;-1.80;85.00;;;;;;5038002;28;20189;-72
2022/12/19 06:26:41;;;;;;;25.00;16.27;;;-1.80;85.30;;;;;;5036042;28;20284;-71
2022/12/19 06:29:07;;;;;;;28.33;16.67;;;-1.80;85.10;;;;;;5042740;28;20183;-71
2022/12/19 06:31:32;;;;;;;31.23;17.93;;;-1.80;84.60;;;;;;5018271;28;20433;-71
2022/12/19 06:33:58;;;;;;;33.00;17.37;;;-1.80;84.40;;;;;;5022642;28;20207;-71
2022/12/19 06:36:27;;;;;;;27.50;16.07;;;-1.80;84.60;;;;;;5009038;28;20227;-71
2022/12/19 06:38:53;;;;;;;31.90;17.10;;;-1.70;84.40;;;;;;5051110;28;20280;-71
2022/12/19 06:44:06;;;;;;;28.07;17.50;;;-1.80;84.00;;;;;;5051708;28;20500;-70
2022/12/19 06:46:32;;;;;;;35.03;18.17;;;-1.70;84.00;;;;;;5035243;28;20488;-72
2022/12/19 06:48:59;;;;;;;28.37;16.63;;;-1.70;84.10;;;;;;5035572;28;20437;-71
2022/12/19 06:51:24;;;;;;;29.73;16.73;;;-1.70;83.70;;;;;;5033574;28;20525;-72
2022/12/19 06:53:50;;;;;;;27.47;16.97;;;-1.70;84.00;;;;;;5044420;28;20533;-72
2022/12/19 06:56:17;;;;;;;30.23;17.13;;;-1.70;83.30;;;;;;5032180;28;20201;-71
2022/12/19 06:58:43;;;;;;;28.13;17.17;;;-1.80;84.20;;;;;;5042354;28;20219;-71
2022/12/19 07:01:20;;;;;;;29.37;16.60;;;-1.70;84.20;;;;;;5034860;28;20430;-72
2022/12/19 07:03:47;;;;;;;28.73;16.23;;;-1.70;83.70;;;;;;5053210;28;20182;-72
2022/12/19 07:06:14;;;;;;;27.67;16.90;;;-1.70;83.50;;;;;;5034393;28;20450;-69
2022/12/19 07:08:39;;;;;;;30.03;16.53;;;-1.70;84.20;;;;;;5033171;28;20941;-73
2022/12/19 07:11:05;;;;;;;29.27;17.57;;;-1.70;83.70;;;;;;5006831;28;20443;-73
2022/12/19 07:13:31;;;;;;;31.93;17.80;;;-1.70;84.30;;;;;;5021819;28;20204;-72
2022/12/19 07:16:00;;;;;;;33.67;19.90;;;-1.70;84.20;;;;;;5049590;28;20307;-71
2022/12/19 07:18:27;;;;;;;33.93;19.63;;;-1.60;84.60;;;;;;5030253;28;20603;-71
2022/12/19 07:20:53;;;;;;;39.83;20.50;;;-1.60;84.40;;;;;;5020945;28;20443;-71
2022/12/19 07:23:20;;;;;;;37.13;20.63;;;-1.60;84.70;;;;;;5036820;28;20425;-71
2022/12/19 07:25:46;;;;;;;35.43;19.33;;;-1.60;84.60;;;;;;5028660;28;20185;-71
2022/12/19 07:28:12;;;;;;;32.03;17.80;;;-1.50;84.70;;;;;;5029717;28;20484;-71
2022/12/19 07:30:38;;;;;;;26.80;17.17;;;-1.50;84.60;;;;;;5033449;28;20333;-72
2022/12/19 07:33:04;;;;;;;29.23;18.13;;;-1.50;84.60;;;;;;5035277;28;20525;-71
2022/12/19 07:35:30;;;;;;;28.77;17.37;;;-1.50;84.90;;;;;;5017267;28;20285;-71
2022/12/19 07:38:04;;;;;;;29.90;17.33;;;-1.50;84.90;;;;;;5017446;28;20223;-72
2022/12/19 07:40:30;;;;;;;31.33;16.07;;;-1.50;85.00;;;;;;5044148;28;20187;-71
2022/12/19 07:43:01;;;;;;;28.43;17.47;;;-1.40;84.10;;;;;;5034215;28;20412;-71
2022/12/19 07:45:28;;;;;;;26.90;16.43;;;-1.40;84.50;;;;;;5039791;28;20227;-71
2022/12/19 07:47:53;;;;;;;24.57;14.77;;;-1.30;84.70;;;;;;5031717;28;20469;-73
2022/12/19 07:50:19;;;;;;;25.37;16.23;;;-1.30;84.50;;;;;;5025845;28;20435;-73
2022/12/19 07:52:45;;;;;;;30.27;18.30;;;-1.30;83.70;;;;;;5035188;28;20207;-72
2022/12/19 07:55:11;;;;;;;30.73;18.50;;;-1.40;84.20;;;;;;5046441;28;20766;-75
2022/12/19 07:57:36;;;;;;;26.47;16.37;;;-1.40;82.90;;;;;;5035196;28;20265;-72
2022/12/19 08:00:04;;;;;;;31.40;17.67;;;-1.30;83.30;;;;;;5047008;28;20198;-72
2022/12/19 08:02:29;;;;;;;28.03;16.83;;;-1.30;83.60;;;;;;5011871;28;20192;-73
2022/12/19 08:05:20;;;;;;;26.10;16.27;;;-1.30;83.30;;;;;;5014414;28;20425;-73
2022/12/19 08:07:46;;;;;;;26.13;15.90;;;-1.10;83.50;;;;;;5031221;28;20203;-72
2022/12/19 08:10:13;;;;;;;31.60;17.93;;;-1.10;83.90;;;;;;5045981;28;20454;-72
2022/12/19 08:12:39;;;;;;;28.60;17.47;;;-1.10;82.40;;;;;;5061028;28;20212;-72
2022/12/19 08:15:05;;;;;;;30.53;17.43;;;-1.10;82.70;;;;;;5031420;28;20445;-72
2022/12/19 08:17:30;;;;;;;30.23;17.53;;;-1.10;82.30;;;;;;5034153;28;20282;-71
2022/12/19 08:19:56;;;;;;;27.30;15.97;;;-1.10;81.40;;;;;;5014891;28;20546;-71
2022/12/19 08:22:22;;;;;;;30.27;17.93;;;-1.00;82.50;;;;;;5019679;28;20237;-72
2022/12/19 08:24:47;;;;;;;29.60;16.67;;;-1.00;81.10;;;;;;5016782;28;20197;-73
2022/12/19 08:27:15;;;;;;;29.53;18.20;;;-1.00;82.60;;;;;;5034443;28;20290;-68
2022/12/19 08:29:41;;;;;;;31.70;17.73;;;-1.00;80.10;;;;;;5043819;28;20196;-70
2022/12/19 08:32:07;;;;;;;26.40;16.83;;;-1.00;81.90;;;;;;5018055;28;20441;-73
2022/12/19 08:34:32;;;;;;;25.67;15.90;;;-1.00;81.80;;;;;;5017866;28;20194;-70
2022/12/19 08:36:58;;;;;;;29.73;16.57;;;-0.90;82.50;;;;;;5016009;28;20296;-71
2022/12/19 08:39:24;;;;;;;25.83;16.03;;;-0.90;82.40;;;;;;5047003;28;20563;-70
2022/12/19 08:41:49;;;;;;;28.17;16.63;;;-0.80;82.10;;;;;;5050074;28;20294;-71
2022/12/19 08:44:15;;;;;;;27.50;15.37;;;-0.70;82.40;;;;;;5013727;28;20197;-69
2022/12/19 08:46:40;;;;;;;30.87;18.30;;;-0.70;82.30;;;;;;5027504;28;20244;-72
2022/12/19 08:49:06;;;;;;;27.53;15.97;;;-0.70;82.00;;;;;;5046391;28;20302;-68
2022/12/19 08:51:32;;;;;;;26.63;16.47;;;-0.70;82.30;;;;;;5014054;28;20199;-69
2022/12/19 08:53:58;;;;;;;25.20;14.97;;;-0.60;82.30;;;;;;5025062;28;20252;-69
2022/12/19 08:56:23;;;;;;;23.57;14.40;;;-0.60;82.30;;;;;;5016041;28;20204;-68
2022/12/19 08:58:54;;;;;;;30.07;17.77;;;-0.60;81.90;;;;;;5016286;28;20223;-68
2022/12/19 09:01:22;;;;;;;26.67;16.80;;;-0.60;80.00;;;;;;5026377;28;20206;-70
2022/12/19 09:03:48;;;;;;;26.43;16.63;;;-0.60;79.70;;;;;;5035298;28;20442;-71
2022/12/19 09:06:15;;;;;;;32.00;15.83;;;-0.70;79.20;;;;;;5048981;28;20436;-70
2022/12/19 09:08:42;;;;;;;28.20;16.27;;;-0.60;79.30;;;;;;5034085;28;20426;-69
2022/12/19 09:11:13;;;;;;;29.23;16.47;;;-0.50;79.00;;;;;;5035603;28;20444;-70
2022/12/19 09:13:41;;;;;;;24.27;14.23;;;-0.50;80.00;;;;;;5044923;28;20438;-71
2022/12/19 09:16:16;;;;;;;27.73;16.03;;;-0.50;80.20;;;;;;5041635;28;20435;-74
2022/12/19 09:18:43;;;;;;;29.00;17.90;;;-0.60;77.30;;;;;;5050820;28;20523;-71
2022/12/19 09:21:09;;;;;;;31.67;17.70;;;-0.70;76.70;;;;;;5050780;28;20499;-71
2022/12/19 09:23:35;;;;;;;31.40;16.63;;;-0.70;77.80;;;;;;5014683;28;20508;-72
2022/12/19 09:26:12;;;;;;;27.37;15.93;;;-0.60;78.90;;;;;;5041777;28;20179;-68
2022/12/19 09:28:39;;;;;;;26.70;15.20;;;-0.50;79.60;;;;;;5038874;28;20187;-72
2022/12/19 09:31:09;;;;;;;35.20;18.33;;;-0.40;80.20;;;;;;5050607;28;20446;-70
2022/12/19 09:33:35;;;;;;;26.63;17.30;;;-0.50;76.60;;;;;;5035303;28;20431;-71
2022/12/19 09:36:01;;;;;;;31.83;19.10;;;-0.50;78.10;;;;;;5047409;28;20438;-71
2022/12/19 09:38:28;;;;;;;33.40;18.07;;;-0.40;78.90;;;;;;5052115;28;20478;-71
2022/12/19 09:40:57;;;;;;;32.20;20.40;;;-0.40;78.50;;;;;;5031961;28;20448;-71
2022/12/19 09:43:50;;;;;;;33.33;18.70;;;-0.50;77.30;;;;;;5051249;28;20442;-71
2022/12/19 09:46:29;;;;;;;32.27;19.10;;;-0.50;77.40;;;;;;5059333;28;20614;-71
2022/12/19 09:48:56;;;;;;;29.73;17.67;;;-0.50;77.80;;;;;;5049247;28;20430;-70
2022/12/19 09:51:22;;;;;;;32.03;19.00;;;-0.40;79.00;;;;;;5031150;28;20454;-70
2022/12/19 09:53:56;;;;;;;33.90;20.30;;;-0.40;79.60;;;;;;5048980;28;20427;-70
2022/12/19 09:56:25;;;;;;;33.90;19.40;;;-0.40;78.20;;;;;;5051389;28;20186;-70
2022/12/19 09:58:57;;;;;;;31.40;19.13;;;-0.40;78.20;;;;;;5051222;28;20462;-70
2022/12/19 10:01:29;;;;;;;32.50;19.77;;;-0.40;79.50;;;;;;5046435;28;20564;-70
2022/12/19 10:04:17;;;;;;;37.90;20.87;;;-0.40;78.20;;;;;;5051286;28;20424;-70
2022/12/19 10:06:43;;;;;;;30.27;20.13;;;-0.30;79.30;;;;;;5036480;28;20435;-71
2022/12/19 10:09:14;;;;;;;35.57;22.23;;;-0.40;77.00;;;;;;5018440;28;20422;-71
2022/12/19 10:12:09;;;;;;;36.77;22.47;;;-0.40;78.40;;;;;;5048285;28;20198;-70
2022/12/19 10:15:04;;;;;;;35.10;20.73;;;-0.40;77.10;;;;;;5051830;28;20440;-71
2022/12/19 10:18:01;;;;;;;41.07;22.20;;;-0.40;78.80;;;;;;5040499;28;20441;-71
2022/12/19 10:20:31;;;;;;;41.23;22.83;;;-0.40;78.70;;;;;;5042818;28;20558;-71
2022/12/19 10:23:29;;;;;;;40.57;24.00;;;-0.40;79.10;;;;;;5053285;28;20438;-71
2022/12/19 10:25:54;;;;;;;38.93;22.43;;;-0.40;78.80;;;;;;5040941;28;20450;-71
2022/12/19 10:28:23;;;;;;;37.97;23.20;;;-0.30;78.40;;;;;;5058030;28;20486;-71
2022/12/19 10:31:13;;;;;;;40.20;23.00;;;-0.40;77.80;;;;;;5072321;28;20194;-71
2022/12/19 10:33:47;;;;;;;41.43;23.03;;;-0.40;78.40;;;;;;5042853;28;20440;-71
2022/12/19 10:36:14;;;;;;;37.67;20.40;;;-0.40;78.10;;;;;;5068625;28;20963;-67
2022/12/19 10:38:49;;;;;;;41.10;22.60;;;-0.30;79.80;;;;;;5032034;28;20480;-71
2022/12/19 10:41:27;;;;;;;43.00;24.13;;;-0.20;80.40;;;;;;5050962;28;20441;-71
2022/12/19 10:43:56;;;;;;;35.93;21.10;;;-0.20;78.10;;;;;;5048004;28;20450;-71
2022/12/19 10:46:42;;;;;;;33.40;20.23;;;-0.30;78.80;;;;;;5035483;28;20477;-71
2022/12/19 10:49:23;;;;;;;33.70;20.30;;;-0.30;79.00;;;;;;5041889;28;20505;-71
2022/12/19 10:52:10;;;;;;;35.60;21.80;;;-0.30;79.40;;;;;;5044994;28;20433;-71
2022/12/19 10:54:38;;;;;;;38.03;21.40;;;-0.20;79.90;;;;;;5048815;28;20449;-71
2022/12/19 10:57:25;;;;;;;41.57;22.20;;;-0.20;78.60;;;;;;5049010;28;20444;-71
2022/12/19 11:00:16;;;;;;;43.53;23.60;;;-0.30;78.70;;;;;;5035251;28;20479;-72
2022/12/19 11:02:52;;;;;;;49.17;24.37;;;-0.30;79.50;;;;;;5043275;28;20490;-72
2022/12/19 11:05:44;;;;;;;42.10;24.77;;;-0.30;80.80;;;;;;5050370;28;20448;-72
2022/12/19 11:08:09;;;;;;;42.83;24.73;;;-0.30;80.00;;;;;;5038798;28;20437;-71
2022/12/19 11:11:15;;;;;;;47.17;24.83;;;-0.30;80.90;;;;;;5042298;28;20420;-71
2022/12/19 11:13:46;;;;;;;45.07;25.13;;;-0.30;80.50;;;;;;5046055;28;20289;-71
2022/12/19 11:16:21;;;;;;;44.77;23.47;;;-0.30;80.40;;;;;;5043928;28;20430;-71
2022/12/19 11:18:47;;;;;;;41.40;23.57;;;-0.30;81.20;;;;;;5052810;28;20463;-71
2022/12/19 11:21:24;;;;;;;45.70;25.27;;;-0.20;81.50;;;;;;5030981;28;20457;-71
2022/12/19 11:24:24;;;;;;;49.53;26.13;;;-0.30;79.00;;;;;;5047757;28;20512;-71
2022/12/19 11:26:51;;;;;;;40.23;23.43;;;-0.30;80.20;;;;;;5046186;28;20455;-72
2022/12/19 11:29:22;;;;;;;43.63;23.83;;;-0.30;82.00;;;;;;5046540;28;20445;-72
2022/12/19 11:31:55;;;;;;;47.07;26.03;;;-0.20;82.30;;;;;;5047960;28;20495;-72
2022/12/19 11:34:23;;;;;;;51.27;27.00;;;-0.20;81.80;;;;;;5048296;28;20471;-72
2022/12/19 11:36:51;;;;;;;51.17;25.30;;;-0.30;81.90;;;;;;5039343;28;20451;-71
2022/12/19 11:39:40;;;;;;;47.40;23.77;;;-0.30;82.10;;;;;;5048839;28;20464;-71
2022/12/19 11:42:21;;;;;;;51.70;25.30;;;-0.20;82.20;;;;;;5049380;28;20513;-72
2022/12/19 11:45:10;;;;;;;52.83;25.90;;;-0.30;83.60;;;;;;5051020;28;20431;-70
2022/12/19 11:47:48;;;;;;;47.70;26.47;;;-0.30;83.00;;;;;;5026945;28;20476;-75
2022/12/19 11:50:37;;;;;;;50.67;25.27;;;-0.30;83.50;;;;;;5050592;28;20473;-70
2022/12/19 11:53:28;;;;;;;50.70;25.90;;;-0.30;83.80;;;;;;5049034;28;20440;-73
2022/12/19 11:56:07;;;;;;;44.20;24.43;;;-0.40;82.00;;;;;;5050424;28;20445;-71
2022/12/19 11:58:33;;;;;;;46.90;27.03;;;-0.30;83.60;;;;;;5049193;28;20479;-71
2022/12/19 12:01:33;;;;;;;46.20;24.90;;;-0.30;83.10;;;;;;5031632;28;20444;-72
2022/12/19 12:04:11;;;;;;;53.43;27.17;;;-0.30;83.70;;;;;;5036264;28;20183;-74
2022/12/19 12:06:46;;;;;;;52.13;26.43;;;-0.30;84.20;;;;;;5063602;28;20436;-74
2022/12/19 12:09:37;;;;;;;44.67;24.73;;;-0.30;84.40;;;;;;5051469;28;20490;-73
2022/12/19 12:12:30;;;;;;;47.80;27.50;;;-0.30;84.70;;;;;;5039034;28;20421;-73
2022/12/19 12:15:46;;;;;;;56.50;28.13;;;-0.30;84.70;;;;;;5049751;28;20441;-74
2022/12/19 12:18:27;;;;;;;49.03;25.63;;;-0.30;84.90;;;;;;5038726;28;20461;-70
2022/12/19 12:21:03;;;;;;;55.63;26.13;;;-0.30;83.90;;;;;;5048608;28;20444;-73
2022/12/19 12:23:41;;;;;;;46.13;24.87;;;-0.30;83.70;;;;;;5030393;28;20445;-73
2022/12/19 12:26:35;;;;;;;47.80;26.03;;;-0.30;84.60;;;;;;5047889;28;20410;-74
2022/12/19 12:29:20;;;;;;;49.63;26.47;;;-0.30;84.80;;;;;;5037242;28;20480;-75
2022/12/19 12:32:13;;;;;;;41.50;25.47;;;-0.30;83.70;;;;;;5051559;28;20466;-73
2022/12/19 12:34:38;;;;;;;45.83;24.07;;;-0.30;84.90;;;;;;5040639;28;20444;-74
2022/12/19 12:37:29;;;;;;;47.27;26.63;;;-0.20;85.40;;;;;;5051062;28;20421;-76
2022/12/19 12:40:30;;;;;;;48.70;25.03;;;-0.30;84.50;;;;;;5077095;28;20210;-73
2022/12/19 12:43:02;;;;;;;52.43;27.17;;;-0.30;85.00;;;;;;5036766;28;20448;-73
2022/12/19 12:45:37;;;;;;;44.90;24.43;;;-0.30;83.90;;;;;;5048886;28;20500;-76
2022/12/19 12:48:20;;;;;;;53.57;26.73;;;-0.20;85.00;;;;;;5047264;28;20449;-73
2022/12/19 12:50:47;;;;;;;52.37;27.43;;;-0.30;84.20;;;;;;5042722;28;20441;-72
2022/12/19 12:53:18;;;;;;;56.57;26.87;;;-0.40;83.20;;;;;;5038882;28;20541;-76